Wan Hai 510 — 9VJJ8 — position and weather

sailwx.info

Track history (hours):
 
Tides and Currents Weather Stations Pressure Air Temp Water Temp Dewpoint Dewpoint Depression Visibility Wind Speed Wind Dir Waves Ship Positions

Wan Hai 510

Last reported at 2015-Jan-25 19:33 UTC. Time now 2015-Jan-31 17:46 UTC.
Position N 01°15' E 103°43'.

Length 269 m; draft 11.7 m.

Type: Cargo ship. MMSI: 565741000.

Date/timePositionNaut miles runAvg speedWind from/ knotsBaromVisibWave heightAir tempDewpointWater temp
2015-Jan-25 19:33N 01°15' E 103°43'4 3.7
2015-Jan-25 18:33N 01°17' E 103°46'0 0.0
2015-Jan-25 17:23N 01°17' E 103°46'0 0.0
2015-Jan-25 16:29N 01°17' E 103°46'0 0.0
2015-Jan-25 15:29N 01°17' E 103°46'0 0.0
2015-Jan-25 14:32N 01°17' E 103°46'0 0.0
2015-Jan-25 13:32N 01°17' E 103°46'0 0.0
2015-Jan-25 12:32N 01°17' E 103°46'0 0.0
2015-Jan-25 11:29N 01°17' E 103°46'0 0.0
2015-Jan-25 10:33N 01°17' E 103°46'4 3.7
2015-Jan-25 09:33N 01°14' E 103°47'9 8.8
2015-Jan-25 08:33N 01°14' E 103°56'  
2015-Jan-22 04:33N 21°51' E 113°57'2711.9
2015-Jan-22 02:18N 22°17' E 114°06'1110.5
2015-Jan-22 01:13N 22°22' E 113°55'5 7.2
2015-Jan-22 00:33N 22°26' E 113°53'1 1.1
2015-Jan-21 23:31N 22°27' E 113°53'0 0.0
2015-Jan-21 22:43N 22°27' E 113°53'0 0.0
2015-Jan-21 22:31N 22°27' E 113°53'0 0.0
2015-Jan-21 20:31N 22°27' E 113°53'0 0.0
2015-Jan-21 19:31N 22°27' E 113°53'0 0.0
2015-Jan-21 18:31N 22°27' E 113°53'0 0.0
2015-Jan-21 17:31N 22°27' E 113°53'0 0.0
2015-Jan-21 16:25N 22°27' E 113°53'0 0.0
2015-Jan-21 15:31N 22°27' E 113°53'0 0.0
2015-Jan-21 14:31N 22°27' E 113°53'0 0.0
2015-Jan-21 13:25N 22°27' E 113°53'0 0.0
2015-Jan-21 11:11N 22°27' E 113°53'2 2.8
2015-Jan-21 10:33N 22°25' E 113°53'12 8.2
2015-Jan-21 09:06N 22°20' E 114°05'3 4.6
2015-Jan-21 08:33N 22°20' E 114°08'0 0.0
2015-Jan-21 07:33N 22°20' E 114°08'0 0.0
2015-Jan-21 06:30N 22°20' E 114°08'0 0.0
2015-Jan-21 05:30N 22°20' E 114°08'0 0.0
2015-Jan-21 04:24N 22°20' E 114°08'0 0.1
2015-Jan-21 03:33N 22°20' E 114°08'0 0.1
2015-Jan-21 02:30N 22°20' E 114°08'0 0.0
2015-Jan-21 01:33N 22°20' E 114°08'0 0.0
2015-Jan-21 00:30N 22°20' E 114°08'0 0.0
2015-Jan-20 23:33N 22°20' E 114°08'0 0.0
2015-Jan-20 22:30N 22°20' E 114°08'0 0.0
2015-Jan-20 21:33N 22°20' E 114°08'0 0.1
2015-Jan-20 20:30N 22°20' E 114°08'0 0.1
2015-Jan-20 19:27N 22°20' E 114°08'0 0.0
2015-Jan-20 18:30N 22°20' E 114°08'0 0.0
2015-Jan-20 17:33N 22°20' E 114°08'0 0.0
2015-Jan-20 16:30N 22°20' E 114°08'0 0.3
2015-Jan-20 15:33N 22°20' E 114°07'9 8.0
2015-Jan-20 14:23N 22°11' E 114°12'9 9.9
2015-Jan-20 13:31N 22°09' E 114°21'30613.1
2015-Jan-19 14:07N 22°31' E 119°50'814.2
2015-Jan-19 13:34N 22°32' E 119°59'1414.3
2015-Jan-19 12:33N 22°33' E 120°14'4 4.0
2015-Jan-19 11:33N 22°34' E 120°18'0 0.4
2015-Jan-19 10:33N 22°35' E 120°18'0 0.0
2015-Jan-19 09:33N 22°35' E 120°18'0 0.1
2015-Jan-19 08:33N 22°35' E 120°18'0 0.1
2015-Jan-19 07:27N 22°35' E 120°18'0 0.1
2015-Jan-19 06:33N 22°35' E 120°18'0 0.0
2015-Jan-19 05:33N 22°35' E 120°18'0 0.0
2015-Jan-19 04:33N 22°35' E 120°18'0 0.1
2015-Jan-19 03:33N 22°35' E 120°18'0 0.0
2015-Jan-19 02:33N 22°35' E 120°18'0 0.0
2015-Jan-19 01:33N 22°35' E 120°18'0 0.0
2015-Jan-19 00:33N 22°35' E 120°18'0 0.0
2015-Jan-18 23:33N 22°35' E 120°18'0 0.1
2015-Jan-18 22:33N 22°35' E 120°18'0 0.1
2015-Jan-18 21:33N 22°35' E 120°18'0 0.1
2015-Jan-18 20:27N 22°35' E 120°18'0 0.0
2015-Jan-18 19:33N 22°35' E 120°18'0 0.1
2015-Jan-18 18:33N 22°35' E 120°18'0 0.0
2015-Jan-18 17:33N 22°35' E 120°18'0 0.1
2015-Jan-18 16:33N 22°35' E 120°18'0 0.1
2015-Jan-18 15:27N 22°35' E 120°18'0 0.0
2015-Jan-18 14:33N 22°35' E 120°18'0 0.0
2015-Jan-18 13:27N 22°35' E 120°18'0 0.1
2015-Jan-18 12:33N 22°35' E 120°18'0 0.1
2015-Jan-18 11:33N 22°35' E 120°18'0 0.0
2015-Jan-18 10:33N 22°35' E 120°18'0 0.1
2015-Jan-18 09:33N 22°35' E 120°18'0 0.1
2015-Jan-18 08:27N 22°35' E 120°18'0 0.1
2015-Jan-18 07:34N 22°35' E 120°18'3 3.0
2015-Jan-18 06:33N 22°32' E 120°16'8 7.9
2015-Jan-18 05:33N 22°26' E 120°10'1918.6
2015-Jan-18 04:32N 22°11' E 119°59'  
Track history (hours):
 
Tides and Currents Weather Stations Pressure Air Temp Water Temp Dewpoint Dewpoint Depression Visibility Wind Speed Wind Dir Waves Ship Positions

Wan Hai 510

Last reported at 2015-Jan-25 19:33 UTC. Time now 2015-Jan-31 17:46 UTC.
Position N 01°15' E 103°43'.

Length 269 m; draft 11.7 m.

Type: Cargo ship. MMSI: 565741000.

Date/timePositionNaut miles runAvg speedWind from/ knotsBaromVisibWave heightAir tempDewpointWater temp
2015-Jan-25 19:33N 01°15' E 103°43'4 3.7
2015-Jan-25 18:33N 01°17' E 103°46'0 0.0
2015-Jan-25 17:23N 01°17' E 103°46'0 0.0
2015-Jan-25 16:29N 01°17' E 103°46'0 0.0
2015-Jan-25 15:29N 01°17' E 103°46'0 0.0
2015-Jan-25 14:32N 01°17' E 103°46'0 0.0
2015-Jan-25 13:32N 01°17' E 103°46'0 0.0
2015-Jan-25 12:32N 01°17' E 103°46'0 0.0
2015-Jan-25 11:29N 01°17' E 103°46'0 0.0
2015-Jan-25 10:33N 01°17' E 103°46'4 3.7
2015-Jan-25 09:33N 01°14' E 103°47'9 8.8
2015-Jan-25 08:33N 01°14' E 103°56'  
2015-Jan-22 04:33N 21°51' E 113°57'2711.9
2015-Jan-22 02:18N 22°17' E 114°06'1110.5
2015-Jan-22 01:13N 22°22' E 113°55'5 7.2
2015-Jan-22 00:33N 22°26' E 113°53'1 1.1
2015-Jan-21 23:31N 22°27' E 113°53'0 0.0
2015-Jan-21 22:43N 22°27' E 113°53'0 0.0
2015-Jan-21 22:31N 22°27' E 113°53'0 0.0
2015-Jan-21 20:31N 22°27' E 113°53'0 0.0
2015-Jan-21 19:31N 22°27' E 113°53'0 0.0
2015-Jan-21 18:31N 22°27' E 113°53'0 0.0
2015-Jan-21 17:31N 22°27' E 113°53'0 0.0
2015-Jan-21 16:25N 22°27' E 113°53'0 0.0
2015-Jan-21 15:31N 22°27' E 113°53'0 0.0
2015-Jan-21 14:31N 22°27' E 113°53'0 0.0
2015-Jan-21 13:25N 22°27' E 113°53'0 0.0
2015-Jan-21 11:11N 22°27' E 113°53'2 2.8
2015-Jan-21 10:33N 22°25' E 113°53'12 8.2
2015-Jan-21 09:06N 22°20' E 114°05'3 4.6
2015-Jan-21 08:33N 22°20' E 114°08'0 0.0
2015-Jan-21 07:33N 22°20' E 114°08'0 0.0
2015-Jan-21 06:30N 22°20' E 114°08'0 0.0
2015-Jan-21 05:30N 22°20' E 114°08'0 0.0
2015-Jan-21 04:24N 22°20' E 114°08'0 0.1
2015-Jan-21 03:33N 22°20' E 114°08'0 0.1
2015-Jan-21 02:30N 22°20' E 114°08'0 0.0
2015-Jan-21 01:33N 22°20' E 114°08'0 0.0
2015-Jan-21 00:30N 22°20' E 114°08'0 0.0
2015-Jan-20 23:33N 22°20' E 114°08'0 0.0
2015-Jan-20 22:30N 22°20' E 114°08'0 0.0
2015-Jan-20 21:33N 22°20' E 114°08'0 0.1
2015-Jan-20 20:30N 22°20' E 114°08'0 0.1
2015-Jan-20 19:27N 22°20' E 114°08'0 0.0
2015-Jan-20 18:30N 22°20' E 114°08'0 0.0
2015-Jan-20 17:33N 22°20' E 114°08'0 0.0
2015-Jan-20 16:30N 22°20' E 114°08'0 0.3
2015-Jan-20 15:33N 22°20' E 114°07'9 8.0
2015-Jan-20 14:23N 22°11' E 114°12'9 9.9
2015-Jan-20 13:31N 22°09' E 114°21'30613.1
2015-Jan-19 14:07N 22°31' E 119°50'814.2
2015-Jan-19 13:34N 22°32' E 119°59'1414.3
2015-Jan-19 12:33N 22°33' E 120°14'4 4.0
2015-Jan-19 11:33N 22°34' E 120°18'0 0.4
2015-Jan-19 10:33N 22°35' E 120°18'0 0.0
2015-Jan-19 09:33N 22°35' E 120°18'0 0.1
2015-Jan-19 08:33N 22°35' E 120°18'0 0.1
2015-Jan-19 07:27N 22°35' E 120°18'0 0.1
2015-Jan-19 06:33N 22°35' E 120°18'0 0.0
2015-Jan-19 05:33N 22°35' E 120°18'0 0.0
2015-Jan-19 04:33N 22°35' E 120°18'0 0.1
2015-Jan-19 03:33N 22°35' E 120°18'0 0.0
2015-Jan-19 02:33N 22°35' E 120°18'0 0.0
2015-Jan-19 01:33N 22°35' E 120°18'0 0.0
2015-Jan-19 00:33N 22°35' E 120°18'0 0.0
2015-Jan-18 23:33N 22°35' E 120°18'0 0.1
2015-Jan-18 22:33N 22°35' E 120°18'0 0.1
2015-Jan-18 21:33N 22°35' E 120°18'0 0.1
2015-Jan-18 20:27N 22°35' E 120°18'0 0.0
2015-Jan-18 19:33N 22°35' E 120°18'0 0.1
2015-Jan-18 18:33N 22°35' E 120°18'0 0.0
2015-Jan-18 17:33N 22°35' E 120°18'0 0.1
2015-Jan-18 16:33N 22°35' E 120°18'0 0.1
2015-Jan-18 15:27N 22°35' E 120°18'0 0.0
2015-Jan-18 14:33N 22°35' E 120°18'0 0.0
2015-Jan-18 13:27N 22°35' E 120°18'0 0.1
2015-Jan-18 12:33N 22°35' E 120°18'0 0.1
2015-Jan-18 11:33N 22°35' E 120°18'0 0.0
2015-Jan-18 10:33N 22°35' E 120°18'0 0.1
2015-Jan-18 09:33N 22°35' E 120°18'0 0.1
2015-Jan-18 08:27N 22°35' E 120°18'0 0.1
2015-Jan-18 07:34N 22°35' E 120°18'3 3.0
2015-Jan-18 06:33N 22°32' E 120°16'8 7.9
2015-Jan-18 05:33N 22°26' E 120°10'1918.6
2015-Jan-18 04:32N 22°11' E 119°59'  

Dump ship's entire track history